Time;durP1;ratioP1;P1;durP2;ratioP2;P2;SDS_P1;SDS_P2;PMS_P1;PMS_P2;Temp;Humidity;BMP_temperature;BMP_pressure;BME280_temperature;BME280_humidity;BME280_pressure;Samples;Min_cycle;Max_cycle;Signal;HPM_P1;HPM_P2
2022/05/20 00:01:27;;;;;;;86.43;52.57;;;;;;;15.46;100.00;101505.97;4987039;28;20073;-72
2022/05/20 00:03:52;;;;;;;65.35;47.67;;;;;;;15.45;100.00;101509.66;4987174;28;20116;-74
2022/05/20 00:06:18;;;;;;;83.33;50.87;;;;;;;15.37;100.00;101507.84;4987287;28;20111;-74
2022/05/20 00:08:44;;;;;;;75.07;53.00;;;;;;;15.35;100.00;101517.94;4986982;28;20062;-74
2022/05/20 00:11:09;;;;;;;78.53;50.90;;;;;;;15.32;100.00;101518.31;4986949;28;20033;-74
2022/05/20 00:13:35;;;;;;;76.10;52.45;;;;;;;15.33;100.00;101522.66;4987142;28;20035;-72
2022/05/20 00:16:01;;;;;;;77.28;51.65;;;;;;;15.38;100.00;101536.44;4988470;28;20076;-72
2022/05/20 00:18:27;;;;;;;76.53;49.50;;;;;;;15.37;100.00;101539.31;4991722;28;20034;-74
2022/05/20 00:20:53;;;;;;;;;;;;;;;15.29;100.00;101529.44;4987169;28;20030;-75
2022/05/20 00:23:19;;;;;;;;;;;;;;;15.27;100.00;101527.94;4988803;28;20008;-75
2022/05/20 00:25:47;;;;;;;;;;;;;;;15.26;100.00;101526.22;4988595;28;20341;-75
2022/05/20 00:28:20;;;;;;;70.70;48.47;;;;;;;15.20;100.00;101527.78;4970729;28;19967;-74
2022/05/20 00:30:47;;;;;;;80.63;53.53;;;;;;;15.23;100.00;101538.19;4988068;28;20786;-72
2022/05/20 00:33:13;;;;;;;85.65;55.85;;;;;;;15.19;100.00;101534.16;4980446;28;20068;-74
2022/05/20 00:35:39;;;;;;;93.38;59.50;;;;;;;15.19;100.00;101551.16;4986645;28;20390;-74
2022/05/20 00:38:05;;;;;;;98.18;59.20;;;;;;;15.15;100.00;101548.97;4986702;28;20822;-73
2022/05/20 00:40:31;;;;;;;113.63;61.97;;;;;;;15.18;100.00;101552.16;4987718;28;20034;-73
2022/05/20 00:43:30;;;;;;;97.40;59.38;;;;;;;15.18;100.00;101568.28;4987426;28;20030;-75
2022/05/20 00:46:01;;;;;;;114.47;64.75;;;;;;;15.20;100.00;101578.88;4986231;28;20034;-72
2022/05/20 00:48:28;;;;;;;107.90;66.95;;;;;;;15.28;100.00;101583.38;4987505;28;20043;-74
2022/05/20 00:51:19;;;;;;;112.43;67.30;;;;;;;15.27;100.00;101576.34;4986208;28;20108;-74
2022/05/20 00:53:57;;;;;;;110.80;66.10;;;;;;;15.33;100.00;101589.09;4986236;28;20145;-74
2022/05/20 00:56:28;;;;;;;110.90;63.80;;;;;;;15.29;100.00;101579.66;4982532;28;20097;-74
2022/05/20 00:58:54;;;;;;;97.13;58.58;;;;;;;15.32;100.00;101598.19;4986127;28;20081;-74
2022/05/20 01:01:20;;;;;;;;;;;;;;;15.34;100.00;101580.03;4987800;28;20695;-74
2022/05/20 01:03:47;;;;;;;;;;;;;;;15.26;100.00;101574.66;4987972;28;19917;-72
2022/05/20 01:06:12;;;;;;;87.25;51.92;;;;;;;15.21;100.00;101567.09;4981103;28;19909;-74
2022/05/20 01:08:39;;;;;;;84.63;50.50;;;;;;;15.23;100.00;101554.31;4984277;28;20523;-74
2022/05/20 01:11:05;;;;;;;73.97;45.58;;;;;;;15.26;100.00;101553.13;4986605;28;20273;-73
2022/05/20 01:13:31;;;;;;;61.27;36.87;;;;;;;15.11;100.00;101532.34;4972167;28;20037;-72
2022/05/20 01:16:02;;;;;;;61.22;37.78;;;;;;;15.13;100.00;101508.81;5001662;28;20046;-73
2022/05/20 01:18:29;;;;;;;54.05;33.80;;;;;;;15.06;100.00;101505.13;4986994;28;20085;-75
2022/05/20 01:20:56;;;;;;;45.17;30.02;;;;;;;15.10;100.00;101489.47;4986939;28;20030;-74
2022/05/20 01:23:25;;;;;;;44.85;31.42;;;;;;;15.11;100.00;101485.78;4985630;28;20391;-74
2022/05/20 01:25:52;;;;;;;50.03;30.95;;;;;;;15.15;100.00;101477.19;4985740;28;20022;-72
2022/05/20 01:28:20;;;;;;;42.65;27.45;;;;;;;15.18;100.00;101467.94;4985636;28;20034;-75
2022/05/20 01:30:49;;;;;;;41.28;26.45;;;;;;;15.07;100.00;101447.63;4985675;28;20058;-74
2022/05/20 01:33:32;;;;;;;35.97;24.67;;;;;;;14.99;100.00;101450.38;4976259;28;20027;-72
2022/05/20 01:36:00;;;;;;;41.10;23.85;;;;;;;14.93;100.00;101440.31;5001635;28;20048;-74
2022/05/20 01:38:26;;;;;;;43.42;24.73;;;;;;;15.00;100.00;101435.91;4986664;28;20705;-73
2022/05/20 01:40:56;;;;;;;45.35;25.52;;;;;;;14.95;100.00;101436.41;4985334;28;20066;-72
2022/05/20 01:43:40;;;;;;;46.90;27.77;;;;;;;14.87;100.00;101422.19;4986965;28;20103;-73
2022/05/20 01:46:23;;;;;;;57.17;28.73;;;;;;;14.74;100.00;101418.19;4982561;28;20045;-75
2022/05/20 01:49:20;;;;;;;58.47;28.00;;;;;;;14.61;100.00;101434.03;4985898;28;20391;-75
2022/05/20 01:51:51;;;;;;;60.60;27.27;;;;;;;14.39;100.00;101422.13;4998925;28;20905;-71
2022/05/20 01:54:32;;;;;;;66.03;28.88;;;;;;;14.38;100.00;101414.25;4987538;28;20117;-75
2022/05/20 01:57:28;;;;;;;60.15;26.88;;;;;;;14.25;100.00;101415.59;4987223;28;20422;-74
2022/05/20 01:59:59;;;;;;;58.58;28.83;;;;;;;14.09;100.00;101410.25;4981456;28;20046;-75
2022/05/20 02:02:35;;;;;;;64.45;29.30;;;;;;;14.04;100.00;101420.66;4987176;28;20035;-74
2022/05/20 02:05:13;;;;;;;51.95;25.30;;;;;;;13.98;100.00;101418.63;4984421;28;20044;-74
2022/05/20 02:07:43;;;;;;;44.70;23.20;;;;;;;13.97;100.00;101419.66;4987245;28;20101;-74
2022/05/20 02:10:18;;;;;;;40.75;21.75;;;;;;;13.97;100.00;101420.50;4985492;28;20119;-74
2022/05/20 02:12:48;;;;;;;44.20;22.92;;;;;;;13.95;100.00;101419.81;4986820;28;20391;-73
2022/05/20 02:15:20;;;;;;;44.38;22.63;;;;;;;13.84;100.00;101418.31;4981005;28;20041;-75
2022/05/20 02:17:51;;;;;;;43.45;22.45;;;;;;;13.77;100.00;101409.25;4986976;28;20061;-74
2022/05/20 02:20:27;;;;;;;41.40;20.92;;;;;;;13.78;100.00;101410.94;4981145;28;20031;-75
2022/05/20 02:23:02;;;;;;;44.90;24.02;;;;;;;13.73;100.00;101410.59;4984598;28;20096;-74
2022/05/20 02:25:32;;;;;;;48.33;23.83;;;;;;;13.65;100.00;101413.25;4982540;28;20125;-75
2022/05/20 02:28:04;;;;;;;42.67;23.42;;;;;;;13.54;100.00;101417.13;4985064;28;20037;-74
2022/05/20 02:30:33;;;;;;;49.50;26.17;;;;;;;13.56;100.00;101411.59;4986626;28;20030;-74
2022/05/20 02:33:11;;;;;;;43.38;24.73;;;;;;;13.63;100.00;101431.41;4985177;28;20018;-74
2022/05/20 02:35:39;;;;;;;44.00;25.13;;;;;;;13.64;100.00;101449.16;4985442;28;20096;-74
2022/05/20 02:38:07;;;;;;;48.60;24.40;;;;;;;13.41;100.00;101444.41;4985313;28;20424;-73
2022/05/20 02:40:33;;;;;;;48.20;24.98;;;;;;;13.29;100.00;101438.50;4985261;28;20066;-74
2022/05/20 02:42:58;;;;;;;51.65;25.92;;;;;;;13.30;100.00;101450.09;4986457;28;20061;-75
2022/05/20 02:45:24;;;;;;;54.67;25.87;;;;;;;13.32;100.00;101464.16;4985307;28;20034;-75
2022/05/20 02:47:49;;;;;;;51.47;24.53;;;;;;;13.30;100.00;101467.03;4985167;28;20943;-74
2022/05/20 02:50:14;;;;;;;45.53;23.47;;;;;;;13.21;100.00;101467.13;4986295;28;20024;-75
2022/05/20 02:52:40;;;;;;;48.70;25.03;;;;;;;13.33;100.00;101467.72;4985080;28;20142;-73
2022/05/20 02:55:07;;;;;;;50.28;24.45;;;;;;;13.18;100.00;101460.25;4986457;28;20042;-73
2022/05/20 02:57:32;;;;;;;54.13;25.20;;;;;;;13.14;100.00;101468.78;4965837;28;20018;-75
2022/05/20 03:05:25;;;;;;;49.42;25.25;;;;;;;12.98;100.00;101482.94;4986231;28;20681;-72
2022/05/20 03:07:51;;;;;;;50.07;25.67;;;;;;;12.87;100.00;101484.06;4984941;28;20033;-74
2022/05/20 03:10:16;;;;;;;57.30;24.77;;;;;;;12.85;100.00;101478.00;4992145;28;20487;-74
2022/05/20 03:12:42;;;;;;;53.67;25.13;;;;;;;12.77;100.00;101472.63;4984684;28;20189;-75
2022/05/20 03:15:11;;;;;;;42.83;22.60;;;;;;;12.73;100.00;101464.06;4984771;28;20038;-75
2022/05/20 03:17:36;;;;;;;42.15;23.02;;;;;;;12.73;100.00;101468.56;4985862;28;20460;-74
2022/05/20 03:20:04;;;;;;;32.80;19.10;;;;;;;12.57;100.00;101451.44;4984598;28;20041;-74
2022/05/20 03:22:29;;;;;;;27.88;17.45;;;;;;;12.60;100.00;101445.75;4965077;28;20026;-75
2022/05/20 03:24:55;;;;;;;20.63;14.67;;;;;;;12.57;100.00;101443.38;4984046;28;20744;-74
2022/05/20 03:27:20;;;;;;;27.08;14.73;;;;;;;12.56;100.00;101457.75;4984762;28;20026;-73
2022/05/20 03:29:46;;;;;;;23.00;13.57;;;;;;;12.60;100.00;101464.50;4982550;28;20722;-73
2022/05/20 03:32:13;;;;;;;18.17;11.57;;;;;;;12.48;100.00;101467.56;4984688;28;20053;-75
2022/05/20 03:34:40;;;;;;;16.67;12.93;;;;;;;12.38;100.00;101462.31;4987552;28;20523;-73
2022/05/20 03:37:05;;;;;;;19.33;11.00;;;;;;;12.46;100.00;101460.56;4989896;28;20865;-72
2022/05/20 03:39:32;;;;;;;16.05;10.45;;;;;;;12.46;100.00;101449.00;4988627;28;20129;-74
2022/05/20 03:41:57;;;;;;;17.15;10.88;;;;;;;12.56;100.00;101455.09;4972013;28;20030;-75
2022/05/20 03:44:24;;;;;;;16.98;11.18;;;;;;;12.51;100.00;101440.50;4989895;28;20065;-74
2022/05/20 03:46:52;;;;;;;15.23;10.95;;;;;;;12.51;100.00;101449.38;4989891;28;20501;-75
2022/05/20 03:49:19;;;;;;;19.48;11.07;;;;;;;12.55;100.00;101442.72;4995664;28;20112;-75
2022/05/20 03:51:46;;;;;;;21.13;11.75;;;;;;;12.53;100.00;101452.75;4987966;28;20018;-75
2022/05/20 03:54:13;;;;;;;17.95;11.15;;;;;;;12.48;100.00;101454.19;4988606;28;20038;-75
2022/05/20 03:56:40;;;;;;;17.98;10.68;;;;;;;12.52;100.00;101463.59;4974915;28;20025;-75
2022/05/20 03:59:08;;;;;;;22.70;13.05;;;;;;;12.42;100.00;101466.38;4988451;28;20034;-73
2022/05/20 04:04:18;;;;;;;21.27;12.50;;;;;;;12.48;100.00;101467.56;4981938;28;20035;-75
2022/05/20 04:06:43;;;;;;;22.57;13.90;;;;;;;12.33;100.00;101476.19;4989501;28;20395;-74
2022/05/20 04:09:09;;;;;;;17.20;11.60;;;;;;;12.45;100.00;101484.81;4988344;28;20027;-75
2022/05/20 04:11:34;;;;;;;18.10;11.90;;;;;;;12.57;100.00;101477.34;5003890;22;20022;-74
2022/05/20 04:14:01;;;;;;;16.83;13.27;;;;;;;12.53;100.00;101487.56;4975183;28;20814;-74
2022/05/20 04:16:26;;;;;;;17.92;11.38;;;;;;;12.62;100.00;101496.50;4978322;28;20039;-74
2022/05/20 04:18:52;;;;;;;14.57;10.43;;;;;;;12.52;100.00;101501.94;4983627;28;20499;-74
2022/05/20 04:21:18;;;;;;;15.30;11.32;;;;;;;12.42;100.00;101496.66;4961598;28;20038;-74
2022/05/20 04:23:43;;;;;;;15.10;9.88;;;;;;;12.36;100.00;101489.28;4969968;28;20026;-74
2022/05/20 04:26:10;;;;;;;12.93;11.10;;;;;;;12.41;100.00;101488.81;4982505;28;20838;-74
2022/05/20 04:28:35;;;;;;;15.02;9.40;;;;;;;12.46;100.00;101495.38;4980994;28;20035;-74
2022/05/20 04:31:03;;;;;;;18.65;9.00;;;;;;;12.47;100.00;101498.88;4952163;28;20030;-73
2022/05/20 04:33:29;;;;;;;11.43;6.82;;;;;;;12.39;100.00;101474.75;4969494;28;20030;-74
2022/05/20 04:35:57;;;;;;;9.82;6.03;;;;;;;12.36;100.00;101475.03;4962914;28;20706;-74
2022/05/20 04:38:22;;;;;;;9.80;5.72;;;;;;;12.35;100.00;101468.00;4965130;28;20496;-74
2022/05/20 04:46:56;;;;;;;7.43;5.07;;;;;;;12.33;100.00;101472.69;4959024;28;20037;-74
2022/05/20 04:49:02;;;;;;;11.27;6.80;;;;;;;12.32;100.00;101462.97;4961204;28;20030;-74
2022/05/20 04:51:28;;;;;;;9.73;6.82;;;;;;;12.44;100.00;101472.44;4951660;28;20061;-74
2022/05/20 04:56:37;;;;;;;9.52;6.53;;;;;;;12.52;100.00;101488.53;4969049;28;20213;-74
2022/05/20 04:59:03;;;;;;;9.43;6.43;;;;;;;12.63;100.00;101508.88;4951512;28;20023;-74
2022/05/20 05:01:29;;;;;;;11.15;6.50;;;;;;;12.54;100.00;101515.16;4956809;28;20045;-73
2022/05/20 05:03:54;;;;;;;7.45;6.30;;;;;;;12.56;100.00;101516.69;4935660;28;21242;-74
2022/05/20 05:06:20;;;;;;;12.50;7.23;;;;;;;12.44;100.00;101515.28;4935763;28;20578;-74
2022/05/20 05:08:45;;;;;;;7.53;6.23;;;;;;;12.51;100.00;101516.31;4951557;28;20061;-74
2022/05/20 05:11:10;;;;;;;8.30;6.40;;;;;;;12.66;100.00;101520.09;4951424;28;20146;-74
2022/05/20 05:13:36;;;;;;;10.60;6.27;;;;;;;12.79;100.00;101521.53;4968898;28;20031;-74
2022/05/20 05:16:06;;;;;;;9.13;6.27;;;;;;;12.93;100.00;101531.69;4951504;28;20562;-74
2022/05/20 05:18:32;;;;;;;7.68;5.70;;;;;;;12.94;100.00;101541.38;4951416;28;20145;-74
2022/05/20 05:20:59;;;;;;;6.53;4.40;;;;;;;12.87;100.00;101527.78;4968173;28;20027;-74
2022/05/20 05:23:24;;;;;;;;;;;;;;;12.80;100.00;101510.66;4977291;28;20070;-74
2022/05/20 05:25:49;;;;;;;;;;;;;;;13.01;100.00;101520.97;4969196;28;19960;-74
2022/05/20 05:28:15;;;;;;;6.60;4.00;;;;;;;13.07;100.00;101522.19;4951067;28;19925;-74
2022/05/20 05:30:44;;;;;;;7.75;3.50;;;;;;;12.98;100.00;101529.34;4951075;28;20042;-74
2022/05/20 05:33:10;;;;;;;5.97;3.95;;;;;;;13.12;100.00;101532.44;4960688;28;20181;-75
2022/05/20 05:35:35;;;;;;;8.53;3.87;;;;;;;13.08;100.00;101534.59;4968314;28;20027;-74
2022/05/20 05:38:01;;;;;;;4.57;3.57;;;;;;;13.31;100.00;101551.00;4968210;28;20039;-74
2022/05/20 05:40:30;;;;;;;7.27;2.87;;;;;;;13.34;100.00;101545.31;4941781;28;20038;-74
2022/05/20 05:42:56;;;;;;;6.68;2.85;;;;;;;13.28;100.00;101545.97;4951217;28;20101;-74
2022/05/20 05:45:24;;;;;;;9.48;3.35;;;;;;;13.46;100.00;101548.53;4935191;28;20019;-75
2022/05/20 05:47:54;;;;;;;3.50;2.70;;;;;;;13.30;100.00;101527.88;4950769;28;20058;-75
2022/05/20 05:50:20;;;;;;;6.97;2.95;;;;;;;13.29;100.00;101518.13;4955928;28;20659;-75
2022/05/20 05:52:45;;;;;;;4.47;3.20;;;;;;;13.39;100.00;101531.41;4970200;28;20541;-74
2022/05/20 05:55:11;;;;;;;4.45;2.63;;;;;;;13.44;100.00;101529.09;4967892;28;20381;-74
2022/05/20 05:57:36;;;;;;;6.33;2.77;;;;;;;13.44;100.00;101535.31;4949318;28;20031;-74
2022/05/20 06:00:04;;;;;;;4.70;3.20;;;;;;;13.40;100.00;101533.94;4968028;28;20117;-74
2022/05/20 06:02:37;;;;;;;4.00;3.33;;;;;;;13.37;100.00;101531.59;4967725;28;20037;-75
2022/05/20 06:05:03;;;;;;;5.28;3.08;;;;;;;13.63;100.00;101536.88;4967653;28;20031;-74
2022/05/20 06:07:28;;;;;;;3.90;2.97;;;;;;;13.47;100.00;101542.19;4967973;28;20027;-74
2022/05/20 06:09:53;;;;;;;6.83;3.17;;;;;;;13.44;100.00;101539.84;4950378;28;20031;-74
2022/05/20 06:12:19;;;;;;;3.53;2.67;;;;;;;13.60;100.00;101563.16;4934300;28;20081;-74
2022/05/20 06:14:44;;;;;;;4.57;2.83;;;;;;;13.73;100.00;101585.88;4950068;28;20879;-74
2022/05/20 06:17:13;;;;;;;13.47;3.17;;;;;;;13.87;100.00;101592.44;4961335;28;20034;-73
2022/05/20 06:19:40;;;;;;;3.28;2.50;;;;;;;13.81;100.00;101574.31;4949846;28;20117;-74
2022/05/20 06:22:05;;;;;;;5.72;2.95;;;;;;;13.81;100.00;101568.09;4949949;28;20026;-74
2022/05/20 06:24:30;;;;;;;4.60;2.60;;;;;;;13.88;100.00;101567.31;4943070;29;20039;-73
2022/05/20 06:26:56;;;;;;;6.47;2.73;;;;;;;13.92;100.00;101568.63;4965790;28;20062;-74
2022/05/20 06:29:21;;;;;;;4.90;2.40;;;;;;;13.87;100.00;101552.19;4943956;28;20081;-73
2022/05/20 06:31:46;;;;;;;5.73;2.73;;;;;;;13.96;100.00;101545.00;4933289;28;20034;-74
2022/05/20 06:34:12;;;;;;;2.93;2.00;;;;;;;14.09;100.00;101549.88;4950374;28;20103;-73
2022/05/20 06:39:55;;;;;;;4.13;2.00;;;;;;;13.98;100.00;101532.25;4965606;28;20066;-74
2022/05/20 06:42:14;;;;;;;3.58;2.35;;;;;;;14.13;100.00;101521.69;4952744;28;20109;-74
2022/05/20 06:44:45;;;;;;;2.65;2.20;;;;;;;14.06;100.00;101524.19;4975995;28;20102;-74
2022/05/20 06:47:10;;;;;;;8.55;1.98;;;;;;;14.13;100.00;101513.63;4961422;28;20030;-74
2022/05/20 06:49:36;;;;;;;3.67;2.30;;;;;;;14.36;100.00;101513.81;4961317;28;20037;-75
2022/05/20 06:52:01;;;;;;;3.67;1.80;;;;;;;14.20;100.00;101471.66;4975063;28;20101;-74
2022/05/20 06:54:27;;;;;;;2.90;1.70;;;;;;;14.21;100.00;101467.13;4942679;28;20123;-74
2022/05/20 06:56:53;;;;;;;4.55;1.60;;;;;;;14.49;100.00;101484.59;4977610;28;20034;-73
2022/05/20 06:59:19;;;;;;;3.97;1.70;;;;;;;14.50;100.00;101480.88;4952491;28;20041;-73
2022/05/20 07:01:44;;;;;;;4.38;2.30;;;;;;;14.39;100.00;101466.97;4941596;28;20090;-74
2022/05/20 07:04:09;;;;;;;5.20;1.87;;;;;;;14.33;100.00;101490.81;4957730;28;20177;-74
2022/05/20 07:06:35;;;;;;;3.63;1.50;;;;;;;14.64;100.00;101530.44;4974999;28;20045;-74
2022/05/20 07:09:03;;;;;;;4.43;1.80;;;;;;;14.52;100.00;101496.84;4974714;28;20033;-74
2022/05/20 07:11:28;;;;;;;4.30;1.92;;;;;;;14.51;100.00;101466.41;4967203;28;20322;-74
2022/05/20 07:13:56;;;;;;;2.97;1.47;;;;;;;14.38;100.00;101454.53;4974985;28;20046;-74
2022/05/20 07:16:26;;;;;;;3.75;2.08;;;;;;;14.33;100.00;101488.13;4974826;28;20045;-73
2022/05/20 07:18:53;;;;;;;3.03;1.75;;;;;;;14.52;100.00;101521.03;4959582;28;20135;-74
2022/05/20 07:21:19;;;;;;;2.65;1.75;;;;;;;14.56;100.00;101525.06;4944264;28;20070;-74
2022/05/20 07:23:44;;;;;;;2.33;1.65;;;;;;;14.51;100.00;101508.56;4959267;28;20042;-73
2022/05/20 07:26:10;;;;;;;2.77;1.30;;;;;;;14.41;100.00;101484.56;4957500;28;20078;-74
2022/05/20 07:28:36;;;;;;;5.78;2.15;;;;;;;14.51;100.00;101524.69;4967937;28;20031;-74
2022/05/20 07:31:02;;;;;;;6.50;2.33;;;;;;;14.82;100.00;101540.13;4944367;28;20479;-74
2022/05/20 07:33:28;;;;;;;1.77;1.30;;;;;;;14.55;100.00;101504.56;4977403;28;20626;-73
2022/05/20 07:35:55;;;;;;;2.22;1.60;;;;;;;14.55;100.00;101509.94;4941721;28;20023;-74
2022/05/20 07:38:22;;;;;;;2.80;1.42;;;;;;;14.93;100.00;101561.28;4957034;28;20157;-73
2022/05/20 07:40:47;;;;;;;4.05;1.83;;;;;;;14.94;100.00;101523.47;4951086;28;20113;-74
2022/05/20 07:43:13;;;;;;;3.90;1.67;;;;;;;14.52;100.00;101469.97;4966127;28;20038;-74
2022/05/20 07:45:38;;;;;;;4.95;2.47;;;;;;;14.58;100.00;101517.66;4933001;28;20539;-74
2022/05/20 07:48:04;;;;;;;2.27;1.77;;;;;;;14.60;100.00;101529.09;4966094;28;20938;-74
2022/05/20 07:50:36;;;;;;;4.53;2.10;;;;;;;14.64;100.00;101526.91;4965581;28;20046;-74
2022/05/20 07:53:20;;;;;;;4.93;1.88;;;;;;;14.82;100.00;101518.63;4946962;28;20045;-74
2022/05/20 07:55:50;;;;;;;2.72;2.10;;;;;;;14.53;100.00;101503.88;4966052;28;20101;-74
2022/05/20 07:58:19;;;;;;;4.45;2.22;;;;;;;14.54;100.00;101519.88;4945472;28;20094;-74
2022/05/20 08:00:45;;;;;;;2.20;2.00;;;;;;;14.58;100.00;101520.34;4958188;28;20027;-74
2022/05/20 08:03:14;;;;;;;4.72;2.50;;;;;;;14.59;100.00;101548.91;4934809;28;20097;-74
2022/05/20 08:05:39;;;;;;;3.75;2.08;;;;;;;14.71;100.00;101566.38;4966050;28;20129;-74
2022/05/20 08:08:07;;;;;;;2.20;1.92;;;;;;;14.78;100.00;101545.84;4959913;28;20448;-74
2022/05/20 08:10:35;;;;;;;4.72;2.58;;;;;;;14.56;100.00;101522.38;4966143;28;20031;-74
2022/05/20 08:13:02;;;;;;;5.68;2.35;;;;;;;14.62;100.00;101529.75;4965217;28;20031;-74
2022/05/20 08:15:29;;;;;;;4.65;2.53;;;;;;;14.39;100.00;101526.88;4965138;28;20502;-74
2022/05/20 08:17:55;;;;;;;4.68;2.50;;;;;;;14.52;100.00;101561.31;4948058;28;20170;-74
2022/05/20 08:20:25;;;;;;;3.95;2.45;;;;;;;14.52;100.00;101539.81;4948014;28;20868;-74
2022/05/20 08:22:55;;;;;;;2.35;2.15;;;;;;;14.42;100.00;101520.34;4934492;28;20070;-74
2022/05/20 08:25:22;;;;;;;3.63;3.00;;;;;;;14.23;100.00;101526.88;4953955;28;20415;-74
2022/05/20 08:27:48;;;;;;;5.15;2.45;;;;;;;14.12;100.00;101552.25;4969233;28;20470;-74
2022/05/20 08:30:20;;;;;;;3.97;2.38;;;;;;;14.36;100.00;101587.16;4939885;28;20061;-74
2022/05/20 08:32:46;;;;;;;4.57;2.60;;;;;;;14.56;100.00;101574.28;4968925;28;20125;-74
2022/05/20 08:35:12;;;;;;;4.40;2.47;;;;;;;14.50;100.00;101557.97;4933223;28;20023;-74
2022/05/20 08:37:43;;;;;;;4.05;1.85;;;;;;;14.35;100.00;101531.78;4948937;28;20039;-74
2022/05/20 08:40:21;;;;;;;4.60;2.72;;;;;;;14.51;100.00;101527.38;4935939;28;20038;-74
2022/05/20 08:42:47;;;;;;;5.63;2.72;;;;;;;14.63;100.00;101531.44;4951610;28;20038;-74
2022/05/20 08:45:17;;;;;;;5.00;3.13;;;;;;;14.80;100.00;101532.25;4935185;28;20492;-74
2022/05/20 08:47:46;;;;;;;4.40;2.50;;;;;;;14.80;100.00;101500.00;4947348;28;20384;-74
2022/05/20 08:50:25;;;;;;;4.25;2.88;;;;;;;15.04;100.00;101517.91;4958135;28;20105;-74
2022/05/20 08:52:54;;;;;;;3.63;2.63;;;;;;;15.32;100.00;101502.16;4961280;28;20046;-74
2022/05/20 08:55:20;;;;;;;6.70;3.47;;;;;;;15.50;100.00;101447.22;4944931;28;20026;-74
2022/05/20 08:57:50;;;;;;;5.67;2.87;;;;;;;15.57;100.00;101421.31;4935516;28;20043;-74
2022/05/20 09:00:18;;;;;;;4.13;2.60;;;;;;;15.43;100.00;101403.22;4968744;28;20039;-74
2022/05/20 09:02:43;;;;;;;5.65;2.80;;;;;;;15.72;100.00;101387.22;4969228;28;20029;-74
2022/05/20 09:05:34;;;;;;;4.23;2.20;;;;;;;16.21;100.00;101405.63;4943274;28;20760;-74
2022/05/20 09:07:59;;;;;;;6.72;2.42;;;;;;;16.68;100.00;101388.28;4944132;28;20066;-74
2022/05/20 09:10:31;;;;;;;5.90;2.43;;;;;;;16.49;100.00;101340.34;4951478;28;20027;-75
2022/05/20 09:16:23;;;;;;;3.97;2.13;;;;;;;16.53;100.00;101255.38;4946681;28;20158;-74
2022/05/20 09:19:22;;;;;;;3.47;1.80;;;;;;;16.56;100.00;101270.34;4951249;28;20540;-74
2022/05/20 09:22:04;;;;;;;4.82;2.35;;;;;;;16.79;100.00;101286.41;4960657;28;20043;-74
2022/05/20 09:24:40;;;;;;;3.00;2.38;;;;;;;16.73;100.00;101195.47;4946805;28;20042;-74
2022/05/20 09:27:17;;;;;;;3.75;2.28;;;;;;;17.08;100.00;101199.13;4949717;28;20038;-74
2022/05/20 09:29:47;;;;;;;3.95;2.33;;;;;;;17.17;100.00;101203.38;4933959;28;20057;-74
2022/05/20 09:32:37;;;;;;;3.75;2.67;;;;;;;18.17;95.45;101186.97;4963957;28;20027;-74
2022/05/20 09:35:11;;;;;;;2.97;2.03;;;;;;;18.75;96.73;101250.41;4943267;28;20027;-74
2022/05/20 09:37:38;;;;;;;4.35;2.00;;;;;;;19.87;87.56;101198.34;4966833;28;20094;-74
2022/05/20 09:40:47;;;;;;;3.30;2.30;;;;;;;19.80;82.67;101098.97;4967746;28;20484;-74
2022/05/20 09:43:22;;;;;;;4.85;2.00;;;;;;;20.52;82.11;101193.69;4947370;28;20126;-74
2022/05/20 09:45:50;;;;;;;5.07;1.92;;;;;;;20.52;74.54;101049.94;4951606;28;20046;-74
2022/05/20 09:48:21;;;;;;;4.95;2.53;;;;;;;20.84;72.14;101036.38;4944400;28;20069;-74
2022/05/20 09:51:16;;;;;;;3.38;2.17;;;;;;;21.42;66.87;100956.38;4950454;28;20129;-75
2022/05/20 09:53:43;;;;;;;1.60;1.50;;;;;;;21.93;70.02;101091.72;4959291;28;20655;-74
2022/05/20 09:56:28;;;;;;;4.88;2.40;;;;;;;21.48;64.98;100872.09;4928602;28;20837;-74
2022/05/20 09:59:03;;;;;;;2.20;1.60;;;;;;;20.93;66.63;100858.63;4950214;28;20053;-74
2022/05/20 10:01:30;;;;;;;5.70;2.40;;;;;;;20.59;72.46;101010.06;4950159;28;20049;-75
2022/05/20 10:04:00;;;;;;;2.78;2.58;;;;;;;20.78;75.14;101108.63;4949215;28;20019;-75
2022/05/20 10:06:48;;;;;;;2.10;1.90;;;;;;;20.49;74.72;101055.81;4935183;28;20227;-75
2022/05/20 10:09:32;;;;;;;3.28;2.40;;;;;;;20.03;76.12;101035.28;4949178;28;20027;-75
2022/05/20 10:12:21;;;;;;;2.70;2.17;;;;;;;20.25;79.08;101163.16;4949816;28;20085;-74
2022/05/20 10:15:21;;;;;;;3.45;2.35;;;;;;;20.47;73.84;101038.13;4966320;28;20104;-75
2022/05/20 10:17:58;;;;;;;3.42;2.38;;;;;;;19.45;72.08;100881.84;4930739;28;20046;-75
2022/05/20 10:20:38;;;;;;;4.15;2.08;;;;;;;20.82;74.81;101136.16;4965658;28;20126;-75
2022/05/20 10:23:13;;;;;;;5.55;2.30;;;;;;;21.43;69.36;101037.63;4940558;28;20050;-75
2022/05/20 10:25:50;;;;;;;2.80;1.92;;;;;;;21.77;69.53;101073.34;4965280;28;20045;-75
2022/05/20 10:34:21;;;;;;;3.40;2.50;;;;;;;21.54;67.49;101062.34;4962323;28;20042;-75
2022/05/20 10:36:59;;;;;;;2.17;1.87;;;;;;;22.38;62.48;101024.41;4960845;28;20031;-75
2022/05/20 10:39:52;;;;;;;6.78;3.28;;;;;;;22.64;59.82;100952.38;4952631;28;20077;-75
2022/05/20 10:42:33;;;;;;;3.42;2.33;;;;;;;23.20;59.39;101032.59;4955101;28;20065;-75
2022/05/20 10:48:34;;;;;;;3.35;2.58;;;;;;;21.80;63.42;100953.34;4959793;28;20031;-74
2022/05/20 10:51:29;;;;;;;4.18;2.40;;;;;;;22.57;62.18;101022.41;4949221;28;20066;-75
2022/05/20 10:53:55;;;;;;;3.75;2.47;;;;;;;22.29;61.50;100959.50;4949432;28;20053;-75
2022/05/20 10:56:39;;;;;;;4.87;2.30;;;;;;;22.95;60.80;101008.34;4949516;28;20484;-75
2022/05/20 10:59:35;;;;;;;6.95;3.75;;;;;;;22.50;61.30;100930.88;4939574;28;21027;-75
2022/05/20 11:02:36;;;;;;;6.20;2.97;;;;;;;23.35;63.24;101116.56;4941148;28;20687;-75
2022/05/20 11:05:10;;;;;;;3.33;2.90;;;;;;;22.71;56.85;100719.91;4915212;28;20053;-75
2022/05/20 11:07:52;;;;;;;4.15;1.90;;;;;;;22.77;61.33;100992.97;4949144;28;20588;-75
2022/05/20 11:10:48;;;;;;;2.80;2.50;;;;;;;22.88;61.22;100986.69;4943552;28;20034;-75
2022/05/20 11:13:58;;;;;;;4.57;2.88;;;;;;;22.14;57.10;100677.13;4959888;28;20039;-75
2022/05/20 11:17:02;;;;;;;4.18;2.75;;;;;;;21.45;59.98;100734.03;4970384;28;20173;-76
2022/05/20 11:19:30;;;;;;;5.07;3.28;;;;;;;22.19;60.72;100888.50;4963100;28;20039;-74
2022/05/20 11:22:27;;;;;;;3.53;2.35;;;;;;;22.85;59.09;100919.13;4942350;28;20097;-75
2022/05/20 11:24:56;;;;;;;4.82;2.95;;;;;;;23.63;57.43;100970.53;4945969;28;20047;-75
2022/05/20 11:27:45;;;;;;;6.05;2.90;;;;;;;23.46;54.66;100779.75;4942193;28;20030;-75
2022/05/20 11:30:16;;;;;;;4.57;2.78;;;;;;;23.51;55.85;100842.53;4934946;28;20045;-75
2022/05/20 11:33:18;;;;;;;4.80;2.95;;;;;;;22.54;59.63;100899.38;4948649;28;20039;-74
2022/05/20 11:36:02;;;;;;;3.38;2.90;;;;;;;23.21;59.17;100996.13;4966256;28;20062;-75
2022/05/20 11:39:06;;;;;;;4.68;2.97;;;;;;;22.63;56.82;100768.44;4944691;28;20804;-75
2022/05/20 11:41:50;;;;;;;3.78;2.55;;;;;;;23.14;58.07;100927.38;4948698;28;20034;-75
2022/05/20 11:44:46;;;;;;;4.47;2.70;;;;;;;23.57;55.33;100841.53;4943095;28;20110;-75
2022/05/20 11:47:42;;;;;;;4.97;3.00;;;;;;;23.13;57.42;100865.78;4945317;28;20070;-75
2022/05/20 11:50:27;;;;;;;5.22;3.63;;;;;;;22.79;57.25;100788.63;4939794;28;20049;-75
2022/05/20 11:53:31;;;;;;;8.63;3.67;;;;;;;23.00;60.37;100964.91;4959830;28;20522;-75
2022/05/20 11:56:06;;;;;;;4.90;3.60;;;;;;;22.88;54.29;100678.28;4964040;28;20038;-75
2022/05/20 11:58:39;;;;;;;4.70;2.97;;;;;;;23.07;56.54;100815.84;4963905;28;20053;-75
2022/05/20 12:01:07;;;;;;;3.25;2.70;;;;;;;22.40;58.21;100786.47;4962329;28;20038;-75
2022/05/20 12:06:26;;;;;;;5.07;3.85;;;;;;;22.24;57.81;100730.94;4964768;28;20039;-75
2022/05/20 12:08:53;;;;;;;5.28;3.38;;;;;;;22.45;56.43;100712.31;4963621;28;20502;-75